IRO weather

Birao Airport
Birao, Vakaga, Central African Republic

Public forecast

Using degrees Celsius for public forecast. Weather courtesy of forecast.io.

Closest aviation weather report (METAR) to Birao Airport

Report is more than 6 hours old.

Closest report is Am Timan Airport, 151.9 nm (281.3 km) WNW. Retrieved 2018/05/15 09:00 UTC (2 years ago):

FTTN 150900Z 18008KT CAVOK 32/22 Q////

Closest aviation forecast (TAF) to Birao Airport

Forecast is more than 12 hours old.

Closest forecast is Nyala Airport, 171.2 nm (317.0 km) NE. Retrieved 2011/08/16 09:00 UTC (8 years ago):

TAF HSNN 160700Z 1609/1618 VRB03KT 9/9 SCT040 BKN140 TEMPO 1609/1615 6000 TSRA FEW045CB